Terminal Aerodrome Forecast
Issued by NWS Charleston, WV

Home | Current Version | Previous Version | Text Only | Print | Product List | Glossary On
Versions: 1 2 3 4 5 6 7 8 9 10 11 12 13 14 15 16 17 18 19 20
000
FTUS41 KRLX 242300 AAC
TAFCRW
TAF AMD
KCRW 242311Z 2423/2518 24018G40KT 6SM BR VCTS BKN035CB
      TEMPO 2423/2424 3SM +TSRA BKN030CB
     FM250000 24012G25KT P6SM BKN035
     FM250400 24010G20KT P6SM OVC025
     FM250600 24008G13KT P6SM OVC015
     FM251400 28010G15KT P6SM OVC025
     FM251700 28010G15KT P6SM OVC035=

USA.gov is the U.S. government's official web portal to all federal, state and local government web resources and services.